createdAt,value
2019-02-24T00:01:02.075Z,14.18
2019-02-24T00:03:30.637Z,12.78
2019-02-24T00:05:59.179Z,12.55
2019-02-24T00:08:27.758Z,13.05
2019-02-24T00:10:56.313Z,11.90
2019-02-24T00:13:24.927Z,12.07
2019-02-24T00:15:53.430Z,12.55
2019-02-24T00:18:21.974Z,14.60
2019-02-24T00:20:50.466Z,13.50
2019-02-24T00:23:18.968Z,12.07
2019-02-24T00:25:47.514Z,12.25
2019-02-24T00:28:16.093Z,11.30
2019-02-24T00:30:44.714Z,9.90
2019-02-24T00:33:13.272Z,11.45
2019-02-24T00:36:01.433Z,11.50
2019-02-24T00:38:30.048Z,10.70
2019-02-24T00:40:58.591Z,11.40
2019-02-24T00:43:27.170Z,11.25
2019-02-24T00:45:56.106Z,11.97
2019-02-24T00:48:24.998Z,14.23
2019-02-24T00:50:53.574Z,12.88
2019-02-24T00:53:22.123Z,14.13
2019-02-24T00:55:51.056Z,12.88
2019-02-24T00:58:19.612Z,12.75
2019-02-24T01:00:48.223Z,14.23
2019-02-24T01:03:16.794Z,13.25
2019-02-24T01:05:45.339Z,14.07
2019-02-24T01:08:14.049Z,13.45
2019-02-24T01:10:43.472Z,11.08
2019-02-24T01:13:12.039Z,11.73
2019-02-24T01:15:40.579Z,11.15
2019-02-24T01:18:09.126Z,11.70
2019-02-24T01:20:37.702Z,11.65
2019-02-24T01:23:06.246Z,12.13
2019-02-24T01:25:34.898Z,10.43
2019-02-24T01:28:03.496Z,11.10
2019-02-24T01:30:32.003Z,10.18
2019-02-24T01:33:00.563Z,10.63
2019-02-24T01:35:29.154Z,10.93
2019-02-24T01:37:57.628Z,10.95
2019-02-24T01:40:26.187Z,10.60
2019-02-24T01:42:56.220Z,11.43
2019-02-24T01:45:24.844Z,12.88
2019-02-24T01:47:53.748Z,12.40
2019-02-24T01:50:22.636Z,10.65
2019-02-24T01:52:51.764Z,11.55
2019-02-24T01:55:20.323Z,11.95
2019-02-24T01:57:48.902Z,12.23
2019-02-24T02:00:17.446Z,13.95
2019-02-24T02:02:46.003Z,12.25
2019-02-24T02:05:14.587Z,12.00
2019-02-24T02:07:43.209Z,14.55
2019-02-24T02:10:11.842Z,11.75
2019-02-24T02:12:40.411Z,9.93
2019-02-24T02:15:09.396Z,11.50
2019-02-24T02:17:37.942Z,11.08
2019-02-24T02:20:08.858Z,11.73
2019-02-24T02:22:37.487Z,11.43
2019-02-24T02:25:26.928Z,11.33
2019-02-24T02:27:55.480Z,10.32
2019-02-24T02:30:24.031Z,11.43
2019-02-24T02:32:52.762Z,11.15
2019-02-24T02:35:21.312Z,10.50
2019-02-24T02:37:49.869Z,12.30
2019-02-24T02:40:18.534Z,12.80
2019-02-24T02:42:52.850Z,11.33
2019-02-24T02:45:21.455Z,11.50
2019-02-24T02:47:50.037Z,12.03
2019-02-24T02:50:18.604Z,12.03
2019-02-24T02:52:47.130Z,12.25
2019-02-24T02:55:15.702Z,11.57
2019-02-24T02:57:44.266Z,15.10
2019-02-24T03:00:50.212Z,12.90
2019-02-24T03:03:18.831Z,12.43
2019-02-24T03:05:49.434Z,12.25
2019-02-24T03:08:18.004Z,12.35
2019-02-24T03:10:46.577Z,12.40
2019-02-24T03:13:15.384Z,12.43
2019-02-24T03:15:43.965Z,11.65
2019-02-24T03:18:12.521Z,11.55
2019-02-24T03:20:41.085Z,11.55
2019-02-24T03:23:09.694Z,10.82
2019-02-24T03:25:38.165Z,10.18
2019-02-24T03:28:06.736Z,13.22
2019-02-24T03:30:35.288Z,12.85
2019-02-24T03:33:04.461Z,12.47
2019-02-24T03:35:32.998Z,12.95
2019-02-24T03:38:01.553Z,12.93
2019-02-24T03:40:30.127Z,13.28
2019-02-24T03:42:58.673Z,14.05
2019-02-24T03:45:27.619Z,14.05
2019-02-24T03:47:56.119Z,12.00
2019-02-24T03:50:24.732Z,12.07
2019-02-24T03:52:53.366Z,11.93
2019-02-24T03:55:21.985Z,11.97
2019-02-24T03:57:50.590Z,10.90
2019-02-24T04:00:19.159Z,11.18
2019-02-24T04:02:47.778Z,12.93
2019-02-24T04:05:16.252Z,11.22
2019-02-24T04:07:44.829Z,10.50
2019-02-24T04:10:13.442Z,11.15
2019-02-24T04:12:42.386Z,10.38
2019-02-24T04:15:11.104Z,12.90
2019-02-24T04:17:39.657Z,13.35
2019-02-24T04:20:08.203Z,11.50
2019-02-24T04:22:37.026Z,11.50
2019-02-24T04:25:06.019Z,11.15
2019-02-24T04:27:34.564Z,10.90
2019-02-24T04:30:03.492Z,12.60
2019-02-24T04:32:32.041Z,12.35
2019-02-24T04:35:00.860Z,12.03
2019-02-24T04:37:29.411Z,14.00
2019-02-24T04:39:57.970Z,14.73
2019-02-24T04:42:26.544Z,13.95
2019-02-24T04:44:55.091Z,13.88
2019-02-24T04:47:23.644Z,13.18
2019-02-24T04:49:52.559Z,12.43
2019-02-24T04:52:21.108Z,12.18
2019-02-24T04:54:49.673Z,13.32
2019-02-24T04:57:18.221Z,11.88
2019-02-24T04:59:46.768Z,12.80
2019-02-24T05:02:15.584Z,13.68
2019-02-24T05:04:44.154Z,13.70
2019-02-24T05:07:12.698Z,11.50
2019-02-24T05:09:41.239Z,12.50
2019-02-24T05:12:10.005Z,11.20
2019-02-24T05:14:38.790Z,11.20
2019-02-24T05:17:07.260Z,10.90
2019-02-24T05:19:35.838Z,11.75
2019-02-24T05:22:04.751Z,12.60
2019-02-24T05:24:33.291Z,11.43
2019-02-24T05:27:02.118Z,11.57
2019-02-24T05:29:30.667Z,10.28
2019-02-24T05:31:59.492Z,11.43
2019-02-24T05:34:28.067Z,12.95
2019-02-24T05:36:56.607Z,13.03
2019-02-24T05:39:25.160Z,11.15
2019-02-24T05:41:53.786Z,10.48
2019-02-24T05:44:22.276Z,11.35
2019-02-24T05:46:50.859Z,11.30
2019-02-24T05:49:19.411Z,11.55
2019-02-24T05:51:47.966Z,11.78
2019-02-24T05:54:16.536Z,10.95
2019-02-24T05:56:45.090Z,10.85
2019-02-24T05:59:13.630Z,10.80
2019-02-24T06:01:42.202Z,12.13
2019-02-24T06:04:10.759Z,12.93
2019-02-24T06:06:39.300Z,11.45
2019-02-24T06:09:08.845Z,11.35
2019-02-24T06:11:37.731Z,11.75
2019-02-24T06:14:06.297Z,10.90
2019-02-24T06:16:35.612Z,12.03
2019-02-24T06:19:04.150Z,12.00
2019-02-24T06:21:32.791Z,10.98
2019-02-24T06:24:01.357Z,11.10
2019-02-24T06:26:30.266Z,10.40
2019-02-24T06:28:59.134Z,12.18
2019-02-24T06:31:27.639Z,11.83
2019-02-24T06:33:56.510Z,11.53
2019-02-24T06:36:25.083Z,12.73
2019-02-24T06:38:53.620Z,12.82
2019-02-24T06:41:22.103Z,10.88
2019-02-24T06:43:50.670Z,11.68
2019-02-24T06:46:22.078Z,11.95
2019-02-24T06:48:50.564Z,11.68
2019-02-24T06:51:19.145Z,12.40
2019-02-24T06:53:47.686Z,12.47
2019-02-24T06:56:16.551Z,10.80
2019-02-24T06:58:45.071Z,11.55
2019-02-24T07:01:13.623Z,11.63
2019-02-24T07:03:42.205Z,11.83
2019-02-24T07:06:10.749Z,11.97
2019-02-24T07:08:39.630Z,11.60
2019-02-24T07:11:11.130Z,12.78
2019-02-24T07:13:39.678Z,12.10
2019-02-24T07:16:08.293Z,10.88
2019-02-24T07:18:36.880Z,11.18
2019-02-24T07:21:05.819Z,12.25
2019-02-24T07:23:34.395Z,11.25
2019-02-24T07:26:02.952Z,11.00
2019-02-24T07:28:31.498Z,11.12
2019-02-24T07:31:00.082Z,13.32
2019-02-24T07:33:28.643Z,12.25
2019-02-24T07:35:57.521Z,12.15
2019-02-24T07:38:26.098Z,11.68
2019-02-24T07:40:54.647Z,12.03
2019-02-24T07:43:23.190Z,11.10
2019-02-24T07:45:51.763Z,11.78
2019-02-24T07:48:20.634Z,10.53
2019-02-24T07:50:49.422Z,10.05
2019-02-24T07:53:17.973Z,11.12
2019-02-24T07:55:48.660Z,9.80
2019-02-24T07:58:17.233Z,11.65
2019-02-24T08:00:45.784Z,10.53
2019-02-24T08:03:14.404Z,11.08
2019-02-24T08:05:42.970Z,10.80
2019-02-24T08:08:16.384Z,11.30
2019-02-24T08:10:42.088Z,10.53
2019-02-24T08:13:10.966Z,10.85
2019-02-24T08:15:39.514Z,10.13
2019-02-24T08:18:08.009Z,9.60
2019-02-24T08:20:36.555Z,9.63
2019-02-24T08:23:05.223Z,9.43
2019-02-24T08:25:33.847Z,9.68
2019-02-24T08:28:02.772Z,10.00
2019-02-24T08:30:31.339Z,10.35
2019-02-24T08:32:59.918Z,9.00
2019-02-24T08:35:28.591Z,9.30
2019-02-24T08:37:59.428Z,8.88
2019-02-24T08:40:27.999Z,8.73
2019-02-24T08:42:56.585Z,8.03
2019-02-24T08:45:25.128Z,7.90
2019-02-24T08:47:53.730Z,7.58
2019-02-24T08:50:22.338Z,7.92
2019-02-24T08:52:51.019Z,7.80
2019-02-24T08:55:19.590Z,8.90
2019-02-24T08:57:51.394Z,9.23
2019-02-24T09:00:20.011Z,9.30
2019-02-24T09:02:48.597Z,9.93
2019-02-24T09:05:17.074Z,9.05
2019-02-24T09:07:45.648Z,9.00
2019-02-24T09:10:14.292Z,8.98
2019-02-24T09:12:42.836Z,9.55
2019-02-24T09:15:13.835Z,9.78
2019-02-24T09:17:42.719Z,9.78
2019-02-24T09:20:14.993Z,9.48
2019-02-24T09:22:47.084Z,9.65
2019-02-24T09:25:15.714Z,8.68
2019-02-24T09:27:44.520Z,9.33
2019-02-24T09:30:16.486Z,9.03
2019-02-24T09:32:45.023Z,8.08
2019-02-24T09:35:13.673Z,8.70
2019-02-24T09:37:42.217Z,8.30
2019-02-24T09:40:11.799Z,8.23
2019-02-24T09:42:40.366Z,8.85
2019-02-24T09:45:11.219Z,8.00
2019-02-24T09:47:46.358Z,8.05
2019-02-24T09:50:10.727Z,7.35
2019-02-24T09:52:39.563Z,7.83
2019-02-24T09:55:09.245Z,7.37
2019-02-24T09:57:38.789Z,7.85
2019-02-24T10:00:10.406Z,7.78
2019-02-24T10:02:39.050Z,7.15
2019-02-24T10:05:08.035Z,7.62
2019-02-24T10:07:39.570Z,7.58
2019-02-24T10:10:10.774Z,7.55
2019-02-24T10:12:39.323Z,6.72
2019-02-24T10:15:10.835Z,7.60
2019-02-24T10:17:39.469Z,7.10
2019-02-24T10:20:10.255Z,7.28
2019-02-24T10:22:38.832Z,7.55
2019-02-24T10:25:09.685Z,7.47
2019-02-24T10:27:38.663Z,7.17
2019-02-24T10:30:15.946Z,7.33
2019-02-24T10:32:44.419Z,7.72
2019-02-24T10:35:13.081Z,7.97
2019-02-24T10:37:41.621Z,7.37
2019-02-24T10:40:35.043Z,7.28
2019-02-24T10:43:03.658Z,6.65
2019-02-24T10:45:32.195Z,6.90
2019-02-24T10:48:00.783Z,6.72
2019-02-24T10:50:29.318Z,6.72
2019-02-24T10:52:57.904Z,6.75
2019-02-24T10:55:26.759Z,7.00
2019-02-24T10:57:55.528Z,6.30
2019-02-24T11:00:24.243Z,6.17
2019-02-24T11:02:52.792Z,5.87
2019-02-24T11:05:21.323Z,5.05
2019-02-24T11:07:50.082Z,5.62
2019-02-24T11:10:19.393Z,5.62
2019-02-24T11:12:47.947Z,5.15
2019-02-24T11:15:16.653Z,4.87
2019-02-24T11:17:45.193Z,5.47
2019-02-24T11:20:17.775Z,5.15
2019-02-24T11:22:48.377Z,5.12
2019-02-24T11:25:16.906Z,5.30
2019-02-24T11:27:45.551Z,5.72
2019-02-24T11:30:15.345Z,5.72
2019-02-24T11:32:43.887Z,5.55
2019-02-24T11:35:13.197Z,5.70
2019-02-24T11:37:41.793Z,5.40
2019-02-24T11:40:18.165Z,6.10
2019-02-24T11:42:46.943Z,5.42
2019-02-24T11:45:15.922Z,5.22
2019-02-24T11:47:44.523Z,5.53
2019-02-24T11:50:13.535Z,5.55
2019-02-24T11:52:42.172Z,5.58
2019-02-24T11:55:11.405Z,5.85
2019-02-24T11:57:39.977Z,5.25
2019-02-24T12:00:11.623Z,5.30
2019-02-24T12:02:41.712Z,5.97
2019-02-24T12:05:10.823Z,5.60
2019-02-24T12:07:39.395Z,5.55
2019-02-24T12:10:11.002Z,5.08
2019-02-24T12:12:39.538Z,5.72
2019-02-24T12:15:11.322Z,5.42
2019-02-24T12:17:39.944Z,5.10
2019-02-24T12:20:13.146Z,5.37
2019-02-24T12:22:41.780Z,4.97
2019-02-24T12:25:11.614Z,5.42
2019-02-24T12:27:40.264Z,5.12
2019-02-24T12:30:14.998Z,5.37
2019-02-24T12:32:43.512Z,5.30
2019-02-24T12:35:12.128Z,5.22
2019-02-24T12:37:40.810Z,5.80
2019-02-24T12:40:11.888Z,5.15
2019-02-24T12:42:40.425Z,5.45
2019-02-24T12:45:10.603Z,5.08
2019-02-24T12:47:39.311Z,5.35
2019-02-24T12:50:13.343Z,4.72
2019-02-24T12:52:41.879Z,5.70
2019-02-24T12:55:10.846Z,5.75
2019-02-24T12:57:40.555Z,5.75
2019-02-24T13:00:18.224Z,4.80
2019-02-24T13:02:46.834Z,5.35
2019-02-24T13:05:15.826Z,5.20
2019-02-24T13:07:44.334Z,4.83
2019-02-24T13:10:15.690Z,4.50
2019-02-24T13:12:44.323Z,4.58
2019-02-24T13:15:12.725Z,4.47
2019-02-24T13:17:41.544Z,4.78
2019-02-24T13:20:11.423Z,4.58
2019-02-24T13:22:40.037Z,4.67
2019-02-24T13:25:10.660Z,4.42
2019-02-24T13:27:39.331Z,4.22
2019-02-24T13:30:10.378Z,4.40
2019-02-24T13:32:39.009Z,4.20
2019-02-24T13:35:08.794Z,5.00
2019-02-24T13:37:37.445Z,4.87
2019-02-24T13:40:10.936Z,4.42
2019-02-24T13:42:39.576Z,4.47
2019-02-24T13:45:13.938Z,4.70
2019-02-24T13:47:42.554Z,4.45
2019-02-24T13:50:11.298Z,4.90
2019-02-24T13:52:39.895Z,4.60
2019-02-24T13:55:13.451Z,4.65
2019-02-24T13:57:42.107Z,3.90
2019-02-24T14:00:13.647Z,4.37
2019-02-24T14:02:42.206Z,4.10
2019-02-24T14:05:11.926Z,4.45
2019-02-24T14:07:40.467Z,3.98
2019-02-24T14:10:11.747Z,4.20
2019-02-24T14:12:40.634Z,4.80
2019-02-24T14:15:13.850Z,4.37
2019-02-24T14:17:42.542Z,4.78
2019-02-24T14:20:13.893Z,4.95
2019-02-24T14:22:42.601Z,4.55
2019-02-24T14:25:12.514Z,5.60
2019-02-24T14:27:41.138Z,4.97
2019-02-24T14:30:14.635Z,5.50
2019-02-24T14:32:44.221Z,4.87
2019-02-24T14:35:18.257Z,4.60
2019-02-24T14:37:46.913Z,4.47
2019-02-24T14:40:15.487Z,4.53
2019-02-24T14:42:44.168Z,4.60
2019-02-24T14:45:17.915Z,4.30
2019-02-24T14:47:46.795Z,4.05
2019-02-24T14:50:15.422Z,4.58
2019-02-24T14:52:44.068Z,4.20
2019-02-24T14:55:13.949Z,3.65
2019-02-24T14:57:42.625Z,3.60
2019-02-24T15:00:13.945Z,3.80
2019-02-24T15:02:42.971Z,3.55
2019-02-24T15:05:32.417Z,3.55
2019-02-24T15:08:00.952Z,3.30
2019-02-24T15:10:29.494Z,3.37
2019-02-24T15:12:59.403Z,3.98
2019-02-24T15:15:36.319Z,4.33
2019-02-24T15:18:05.043Z,4.25
2019-02-24T15:20:33.724Z,3.58
2019-02-24T15:23:02.259Z,3.87
2019-02-24T15:25:31.006Z,3.65
2019-02-24T15:27:59.594Z,3.67
2019-02-24T15:30:33.003Z,3.80
2019-02-24T15:33:01.569Z,3.52
2019-02-24T15:35:30.523Z,3.70
2019-02-24T15:37:59.163Z,3.55
2019-02-24T15:40:27.786Z,3.20
2019-02-24T15:42:56.503Z,3.30
2019-02-24T15:45:25.206Z,3.08
2019-02-24T15:47:55.511Z,3.25
2019-02-24T15:50:24.237Z,3.10
2019-02-24T15:52:52.783Z,3.25
2019-02-24T15:55:21.475Z,3.70
2019-02-24T15:57:50.125Z,3.05
2019-02-24T16:00:39.779Z,3.83
2019-02-24T16:03:08.361Z,3.60
2019-02-24T16:05:36.908Z,3.58
2019-02-24T16:08:05.484Z,3.33
2019-02-24T16:10:34.032Z,3.65
2019-02-24T16:13:02.572Z,3.12
2019-02-24T16:15:31.146Z,4.17
2019-02-24T16:17:59.792Z,4.35
2019-02-24T16:20:52.327Z,4.75
2019-02-24T16:23:20.860Z,4.62
2019-02-24T16:25:49.485Z,5.08
2019-02-24T16:28:18.127Z,5.22
2019-02-24T16:30:46.698Z,4.50
2019-02-24T16:33:15.235Z,5.80
2019-02-24T16:35:43.910Z,5.08
2019-02-24T16:38:12.467Z,4.87
2019-02-24T16:40:41.112Z,4.60
2019-02-24T16:43:09.972Z,4.60
2019-02-24T16:45:38.602Z,4.92
2019-02-24T16:48:07.209Z,5.22
2019-02-24T16:50:35.820Z,6.10
2019-02-24T16:53:09.436Z,6.33
2019-02-24T16:55:42.193Z,5.70
2019-02-24T17:04:33.684Z,5.50
2019-02-24T17:10:02.257Z,7.40
2019-02-24T17:12:42.017Z,7.87
2019-02-24T17:15:17.890Z,6.58
2019-02-24T17:17:57.968Z,6.87
2019-02-24T17:23:29.235Z,7.35
2019-02-24T17:25:57.781Z,8.18
2019-02-24T17:28:26.351Z,8.40
2019-02-24T17:30:54.926Z,8.80
2019-02-24T17:33:29.810Z,7.97
2019-02-24T17:35:53.701Z,7.87
2019-02-24T17:38:22.243Z,8.40
2019-02-24T17:40:51.142Z,8.15
2019-02-24T17:43:19.711Z,8.55
2019-02-24T17:45:48.324Z,9.18
2019-02-24T17:48:16.934Z,7.37
2019-02-24T17:50:45.455Z,6.45
2019-02-24T17:53:14.040Z,6.33
2019-02-24T17:55:42.586Z,6.47
2019-02-24T17:58:11.054Z,6.47
2019-02-24T18:00:47.059Z,7.45
2019-02-24T18:03:15.612Z,7.33
2019-02-24T18:05:44.156Z,4.92
2019-02-24T18:08:12.734Z,5.78
2019-02-24T18:10:41.279Z,5.45
2019-02-24T18:13:09.859Z,5.22
2019-02-24T18:15:38.727Z,5.20
2019-02-24T18:18:07.271Z,5.67
2019-02-24T18:20:37.060Z,8.65
2019-02-24T18:23:06.934Z,9.43
2019-02-24T18:25:35.500Z,10.40
2019-02-24T18:28:04.702Z,10.00
2019-02-24T18:30:33.330Z,17.30
2019-02-24T18:33:01.965Z,14.45
2019-02-24T18:35:32.047Z,11.70
2019-02-24T18:38:00.617Z,8.75
2019-02-24T18:40:29.257Z,9.53
2019-02-24T18:43:00.506Z,8.45
2019-02-24T18:45:27.979Z,8.03
2019-02-24T18:47:56.549Z,6.15
2019-02-24T18:50:25.079Z,6.42
2019-02-24T18:52:53.650Z,6.20
2019-02-24T18:55:22.182Z,5.60
2019-02-24T18:57:50.718Z,6.50
2019-02-24T19:00:43.684Z,6.35
2019-02-24T19:03:12.235Z,6.65
2019-02-24T19:05:40.775Z,7.15
2019-02-24T19:08:09.364Z,9.58
2019-02-24T19:10:37.977Z,10.25
2019-02-24T19:13:06.907Z,10.43
2019-02-24T19:15:35.544Z,8.43
2019-02-24T19:18:04.243Z,10.95
2019-02-24T19:20:32.888Z,11.65
2019-02-24T19:23:01.573Z,9.40
2019-02-24T19:25:30.257Z,7.97
2019-02-24T19:27:59.375Z,9.88
2019-02-24T19:30:28.019Z,8.98
2019-02-24T19:32:56.998Z,8.45
2019-02-24T19:35:26.130Z,9.30
2019-02-24T19:37:54.936Z,7.83
2019-02-24T19:40:23.671Z,7.90
2019-02-24T19:42:52.267Z,6.17
2019-02-24T19:45:40.182Z,6.47
2019-02-24T19:48:09.014Z,6.12
2019-02-24T19:50:38.173Z,6.00
2019-02-24T19:53:06.755Z,6.60
2019-02-24T19:55:35.303Z,6.62
2019-02-24T19:58:03.826Z,9.15
2019-02-24T20:00:33.008Z,7.80
2019-02-24T20:03:01.634Z,7.03
2019-02-24T20:05:30.532Z,5.15
2019-02-24T20:07:59.171Z,6.22
2019-02-24T20:10:29.353Z,6.55
2019-02-24T20:12:57.994Z,8.78
2019-02-24T20:15:26.616Z,9.18
2019-02-24T20:17:55.177Z,9.50
2019-02-24T20:20:23.828Z,10.35
2019-02-24T20:22:52.372Z,12.37
2019-02-24T20:25:22.455Z,10.03
2019-02-24T20:27:51.069Z,9.38
2019-02-24T20:30:27.812Z,9.18
2019-02-24T20:32:56.567Z,6.47
2019-02-24T20:35:25.165Z,8.78
2019-02-24T20:37:53.823Z,9.53
2019-02-24T20:40:22.591Z,8.40
2019-02-24T20:42:51.272Z,8.45
2019-02-24T20:45:23.908Z,8.70
2019-02-24T20:47:54.163Z,9.73
2019-02-24T20:50:25.346Z,10.32
2019-02-24T20:52:54.304Z,10.82
2019-02-24T20:55:22.919Z,11.93
2019-02-24T20:58:11.048Z,9.48
2019-02-24T21:01:03.334Z,9.73
2019-02-24T21:03:31.986Z,7.47
2019-02-24T21:06:02.257Z,6.87
2019-02-24T21:08:30.899Z,6.97
2019-02-24T21:10:59.443Z,6.62
2019-02-24T21:13:27.983Z,6.62
2019-02-24T21:15:56.888Z,7.80
2019-02-24T21:18:25.419Z,7.30
2019-02-24T21:20:54.263Z,6.05
2019-02-24T21:23:22.915Z,7.00
2019-02-24T21:25:51.519Z,5.40
2019-02-24T21:28:20.179Z,5.62
2019-02-24T21:30:48.783Z,5.80
2019-02-24T21:33:17.336Z,5.30
2019-02-24T21:35:46.638Z,6.08
2019-02-24T21:38:15.246Z,6.37
2019-02-24T21:40:44.051Z,7.30
2019-02-24T21:43:13.485Z,7.90
2019-02-24T21:45:42.126Z,9.58
2019-02-24T21:48:10.799Z,9.65
2019-02-24T21:50:39.370Z,8.48
2019-02-24T21:53:08.707Z,7.95
2019-02-24T21:55:37.308Z,8.48
2019-02-24T21:58:05.858Z,8.58
2019-02-24T22:00:34.538Z,12.75
2019-02-24T22:03:03.119Z,10.13
2019-02-24T22:05:31.830Z,10.60
2019-02-24T22:08:00.458Z,10.72
2019-02-24T22:10:29.026Z,8.90
2019-02-24T22:12:59.394Z,7.58
2019-02-24T22:15:27.852Z,6.53
2019-02-24T22:17:56.539Z,7.78
2019-02-24T22:20:25.114Z,6.92
2019-02-24T22:22:53.682Z,7.00
2019-02-24T22:25:22.240Z,6.87
2019-02-24T22:27:51.642Z,6.72
2019-02-24T22:30:22.519Z,6.72
2019-02-24T22:32:51.459Z,6.17
2019-02-24T22:35:20.090Z,7.78
2019-02-24T22:37:48.714Z,8.03
2019-02-24T22:40:17.591Z,7.05
2019-02-24T22:42:47.335Z,6.60
2019-02-24T22:45:18.955Z,6.37
2019-02-24T22:47:47.634Z,7.62
2019-02-24T22:50:17.913Z,8.10
2019-02-24T22:52:46.770Z,8.20
2019-02-24T22:55:16.545Z,7.35
2019-02-24T22:57:45.190Z,7.62
2019-02-24T23:00:52.757Z,7.25
2019-02-24T23:03:23.169Z,7.97
2019-02-24T23:05:51.846Z,7.58
2019-02-24T23:08:20.761Z,6.65
2019-02-24T23:10:49.372Z,6.03
2019-02-24T23:13:17.988Z,5.08
2019-02-24T23:15:46.922Z,6.00
2019-02-24T23:18:15.475Z,4.78
2019-02-24T23:20:45.047Z,6.12
2019-02-24T23:23:13.750Z,6.10
2019-02-24T23:25:42.356Z,5.60
2019-02-24T23:28:10.931Z,5.87
2019-02-24T23:30:39.627Z,4.53
2019-02-24T23:33:08.309Z,7.12
2019-02-24T23:35:57.512Z,6.22
2019-02-24T23:38:26.370Z,5.58
2019-02-24T23:40:55.279Z,6.17
2019-02-24T23:43:23.836Z,6.65
2019-02-24T23:45:52.365Z,7.83
2019-02-24T23:48:20.930Z,9.38
2019-02-24T23:50:49.411Z,9.30
2019-02-24T23:53:17.992Z,8.93
2019-02-24T23:55:46.534Z,8.63
2019-02-24T23:58:15.087Z,9.08
